Time;durP1;ratioP1;P1;durP2;ratioP2;P2;SDS_P1;SDS_P2;PMS_P1;PMS_P2;Temp;Humidity;BMP_temperature;BMP_pressure;BME280_temperature;BME280_humidity;BME280_pressure;Samples;Min_cycle;Max_cycle;Signal;HPM_P1;HPM_P2
2022/11/23 00:02:22;;;;;;;;;4.00;3.33;;;;;8.84;76.25;99432.38;5034233;28;45453;-81
2022/11/23 00:04:47;;;;;;;;;7.00;6.25;;;;;8.68;76.16;99407.63;5049864;28;45274;-81
2022/11/23 00:07:13;;;;;;;;;3.00;3.00;;;;;8.83;76.26;99428.88;5042479;28;46881;-81
2022/11/23 00:09:38;;;;;;;;;4.25;3.25;;;;;8.69;76.33;99405.00;5043268;28;45524;-81
2022/11/23 00:12:03;;;;;;;;;4.00;2.00;;;;;8.82;76.06;99426.19;5043282;28;45596;-81
2022/11/23 00:14:29;;;;;;;;;3.25;3.00;;;;;8.70;76.22;99404.16;5046762;28;45456;-81
2022/11/23 00:16:54;;;;;;;;;4.00;2.50;;;;;8.82;76.06;99420.97;5048255;28;45932;-81
2022/11/23 00:19:19;;;;;;;;;6.67;4.00;;;;;8.74;76.24;99403.38;5048736;28;45735;-81
2022/11/23 00:21:45;;;;;;;;;4.25;3.50;;;;;8.73;76.28;99395.50;5047232;28;45484;-81
2022/11/23 00:24:11;;;;;;;;;8.00;6.00;;;;;8.61;76.18;99369.03;5045314;28;45299;-81
2022/11/23 00:26:36;;;;;;;;;3.75;3.00;;;;;8.84;76.03;99403.56;5046488;28;46135;-81
2022/11/23 00:29:02;;;;;;;;;4.00;3.00;;;;;8.88;75.86;99408.00;5044893;28;54009;-82
2022/11/23 00:31:27;;;;;;;;;7.00;5.33;;;;;8.84;75.93;99403.56;5047479;28;45409;-81
2022/11/23 00:33:54;;;;;;;;;6.25;4.50;;;;;8.85;75.92;99407.94;5045626;28;45317;-81
2022/11/23 00:36:21;;;;;;;;;4.75;4.00;;;;;8.92;75.93;99410.72;5040666;28;46141;-81
2022/11/23 00:38:48;;;;;;;;;6.50;5.75;;;;;8.93;76.19;99408.97;5051217;28;45045;-81
2022/11/23 00:41:16;;;;;;;;;7.00;6.00;;;;;8.96;76.07;99403.78;5048408;28;45021;-81
2022/11/23 00:43:42;;;;;;;;;7.00;6.75;;;;;8.89;76.06;99389.69;5043331;28;45199;-81
2022/11/23 00:46:12;;;;;;;;;4.00;3.00;;;;;8.96;76.32;99402.03;5044978;28;45542;-81
2022/11/23 00:48:38;;;;;;;;;2.25;2.25;;;;;8.98;76.29;99404.72;5045337;28;45701;-81
2022/11/23 00:51:06;;;;;;;;;4.00;3.00;;;;;8.98;76.40;99402.97;5042584;28;44950;-81
2022/11/23 00:53:31;;;;;;;;;6.00;3.75;;;;;8.85;76.19;99372.13;5027340;28;45273;-81
2022/11/23 00:55:57;;;;;;;;;4.00;4.00;;;;;8.94;76.19;99387.16;5043883;28;45486;-81
2022/11/23 00:58:23;;;;;;;;;3.00;3.00;;;;;8.98;76.22;99386.38;5047405;28;45606;-81
2022/11/23 01:00:48;;;;;;;;;4.00;3.00;;;;;8.87;76.50;99378.31;5044272;28;45509;-82
2022/11/23 01:03:14;;;;;;;;;6.75;3.00;;;;;8.67;76.31;99351.72;5045865;28;45269;-81
2022/11/23 01:05:40;;;;;;;;;3.75;2.25;;;;;8.94;76.34;99395.03;5045256;28;45376;-81
2022/11/23 01:08:05;;;;;;;;;4.25;4.25;;;;;8.92;76.32;99396.75;5034509;28;45438;-81
2022/11/23 01:10:31;;;;;;;;;5.75;3.75;;;;;8.75;76.29;99378.06;5035101;28;45650;-81
2022/11/23 01:12:57;;;;;;;;;6.50;6.00;;;;;8.76;76.29;99383.31;5032994;28;45496;-81
2022/11/23 01:15:23;;;;;;;;;4.50;4.00;;;;;8.86;76.25;99397.47;5038702;28;45614;-81
2022/11/23 01:17:48;;;;;;;;;3.75;3.25;;;;;8.88;76.12;99398.41;5041978;28;45549;-81
2022/11/23 01:20:14;;;;;;;;;5.00;5.00;;;;;8.83;76.03;99381.72;5032574;28;45451;-81
2022/11/23 01:22:39;;;;;;;;;4.75;3.50;;;;;8.61;75.91;99351.59;5032699;28;45585;-81
2022/11/23 01:25:07;;;;;;;;;5.00;3.00;;;;;8.74;76.01;99366.69;5032787;28;45523;-81
2022/11/23 01:27:32;;;;;;;;;7.25;7.00;;;;;8.75;76.16;99365.84;5042647;28;45570;-81
2022/11/23 01:29:57;;;;;;;;;4.67;4.00;;;;;8.72;75.97;99367.53;5041420;28;45454;-81
2022/11/23 01:32:23;;;;;;;;;3.33;2.33;;;;;8.51;76.23;99329.56;5044711;28;45364;-81
2022/11/23 01:34:48;;;;;;;;;7.75;6.25;;;;;8.58;76.64;99345.44;5047762;28;50806;-81
2022/11/23 01:37:13;;;;;;;;;4.00;4.00;;;;;8.51;76.86;99326.94;5041691;28;45506;-81
2022/11/23 01:39:39;;;;;;;;;6.33;6.33;;;;;8.62;76.92;99342.91;5043843;28;45421;-82
2022/11/23 01:42:07;;;;;;;;;9.50;8.50;;;;;8.54;76.88;99323.53;5046451;28;45267;-81
2022/11/23 01:44:35;;;;;;;;;6.50;6.50;;;;;8.76;77.11;99349.25;5048356;28;45254;-81
2022/11/23 01:47:05;;;;;;;;;8.75;8.00;;;;;8.81;77.05;99348.47;5040141;28;45418;-80
2022/11/23 01:49:44;;;;;;;;;7.50;7.50;;;;;8.77;77.21;99330.09;5052940;28;44958;-81
2022/11/23 01:52:13;;;;;;;;;7.75;6.75;;;;;8.86;77.27;99334.59;5041534;28;45377;-82
2022/11/23 01:54:45;;;;;;;;;8.50;6.75;;;;;8.94;77.11;99342.63;5041630;28;45693;-81
2022/11/23 01:57:20;;;;;;;;;8.00;7.00;;;;;8.85;77.40;99318.88;5039523;28;45748;-81
2022/11/23 01:59:46;;;;;;;;;8.25;7.25;;;;;8.76;77.09;99306.47;5040688;28;45533;-81
2022/11/23 02:02:13;;;;;;;;;8.50;8.50;;;;;9.03;77.18;99342.78;5038421;28;45481;-81
2022/11/23 02:04:43;;;;;;;;;2.00;1.00;;;;;8.81;76.98;99296.06;5041513;28;46413;-81
2022/11/23 02:07:10;;;;;;;;;6.50;4.75;;;;;8.96;77.19;99328.66;5041654;28;45407;-81
2022/11/23 02:09:36;;;;;;;;;8.25;5.25;;;;;9.02;77.30;99333.16;5049841;28;45113;-81
2022/11/23 02:12:01;;;;;;;;;6.75;6.25;;;;;8.99;77.35;99318.25;5053656;28;45136;-80
2022/11/23 02:14:27;;;;;;;;;6.50;5.50;;;;;9.04;77.29;99324.47;5051156;28;45538;-81
2022/11/23 02:16:54;;;;;;;;;4.00;4.00;;;;;8.84;77.03;99283.94;5044998;28;45208;-81
2022/11/23 02:19:27;;;;;;;;;5.50;4.75;;;;;9.11;77.21;99327.19;5043427;28;46238;-81
2022/11/23 02:21:53;;;;;;;;;7.00;6.50;;;;;9.00;77.11;99306.03;5049217;28;45585;-81
2022/11/23 02:24:32;;;;;;;;;7.25;5.75;;;;;9.07;76.88;99318.41;5046122;28;45589;-81
2022/11/23 02:26:57;;;;;;;;;4.00;4.00;;;;;9.13;76.91;99328.09;5050461;28;45247;-81
2022/11/23 02:29:25;;;;;;;;;4.50;3.50;;;;;9.04;77.19;99313.09;5047396;28;45208;-81
2022/11/23 02:31:51;;;;;;;;;6.00;3.75;;;;;9.01;77.06;99310.41;5050551;28;45479;-81
2022/11/23 02:34:17;;;;;;;;;7.00;5.00;;;;;8.96;77.28;99296.34;5052170;28;45796;-81
2022/11/23 02:36:48;;;;;;;;;6.00;6.00;;;;;9.02;77.11;99301.72;5042845;28;45406;-81
2022/11/23 02:39:19;;;;;;;;;7.00;7.00;;;;;9.12;77.29;99318.50;5039004;28;45298;-81
2022/11/23 02:41:48;;;;;;;;;6.50;4.50;;;;;9.10;77.32;99307.06;5038478;28;45498;-81
2022/11/23 02:44:19;;;;;;;;;7.25;6.50;;;;;8.89;77.58;99284.00;5038310;28;45910;-81
2022/11/23 02:46:44;;;;;;;;;5.75;5.00;;;;;9.15;77.49;99308.03;5040916;28;45403;-80
2022/11/23 02:49:10;;;;;;;;;5.75;4.00;;;;;9.11;77.48;99299.22;5037699;28;45466;-81
2022/11/23 02:51:35;;;;;;;;;4.67;4.00;;;;;9.20;77.46;99295.88;5039948;28;45614;-81
2022/11/23 02:54:01;;;;;;;;;5.75;5.75;;;;;9.27;77.34;99309.13;5039604;28;45359;-81
2022/11/23 02:56:26;;;;;;;;;6.25;4.00;;;;;8.76;77.45;99212.16;5039509;28;45558;-81
2022/11/23 02:58:51;;;;;;;;;2.75;2.25;;;;;9.23;77.24;99280.22;5043683;28;45325;-81
2022/11/23 03:01:17;;;;;;;;;4.00;4.00;;;;;9.36;77.31;99303.16;5047945;28;45744;-81
2022/11/23 03:03:42;;;;;;;;;7.00;6.00;;;;;9.38;77.19;99293.56;5053090;28;45197;-81
2022/11/23 03:06:07;;;;;;;;;4.00;3.00;;;;;9.40;77.19;99297.09;5047973;28;50641;-82
2022/11/23 03:08:33;;;;;;;;;4.67;3.00;;;;;9.45;77.20;99297.16;5046198;28;45104;-81
2022/11/23 03:11:01;;;;;;;;;3.50;2.50;;;;;9.41;77.12;99283.16;5041195;28;45701;-81
2022/11/23 03:13:26;;;;;;;;;3.50;3.50;;;;;9.49;76.98;99297.25;5034256;28;45482;-81
2022/11/23 03:15:55;;;;;;;;;4.00;4.00;;;;;9.50;77.23;99288.50;5038952;28;45338;-81
2022/11/23 03:18:21;;;;;;;;;5.00;3.75;;;;;9.52;77.00;99283.31;5033302;28;45512;-81
2022/11/23 03:20:47;;;;;;;;;4.00;3.25;;;;;9.41;77.01;99263.88;5035141;28;45280;-81
2022/11/23 03:23:12;;;;;;;;;4.00;3.00;;;;;9.38;76.65;99262.13;5023597;28;46280;-81
2022/11/23 03:25:37;;;;;;;;;3.50;3.00;;;;;9.44;76.75;99269.19;5031732;28;45610;-81
2022/11/23 03:28:03;;;;;;;;;4.00;3.67;;;;;9.46;76.78;99270.13;5033358;28;45423;-81
2022/11/23 03:30:29;;;;;;;;;8.00;6.00;;;;;9.47;76.86;99272.75;5049129;28;45439;-81
2022/11/23 03:32:55;;;;;;;;;8.00;6.50;;;;;9.38;76.89;99259.50;5054558;28;45720;-81
2022/11/23 03:35:20;;;;;;;;;4.67;3.67;;;;;9.41;76.83;99271.75;5036707;28;50376;-81
2022/11/23 03:37:45;;;;;;;;;4.00;3.67;;;;;9.38;77.02;99277.84;5033450;28;45380;-81
2022/11/23 03:40:11;;;;;;;;;6.00;5.33;;;;;9.39;77.09;99276.97;5034533;28;45836;-81
2022/11/23 03:42:38;;;;;;;;;4.75;4.00;;;;;9.27;76.93;99251.47;5055601;28;46527;-81
2022/11/23 03:45:04;;;;;;;;;4.50;3.25;;;;;9.26;77.21;99241.84;5042327;28;45448;-81
2022/11/23 03:47:30;;;;;;;;;6.00;4.00;;;;;9.27;77.14;99246.22;5053694;28;45408;-81
2022/11/23 03:49:55;;;;;;;;;6.33;4.00;;;;;9.32;77.31;99258.53;5054021;28;45471;-81
2022/11/23 03:52:20;;;;;;;;;3.75;3.00;;;;;9.33;77.25;99255.91;5059366;28;45485;-81
2022/11/23 03:54:46;;;;;;;;;6.67;5.33;;;;;9.16;77.18;99221.59;5055849;28;58872;-81
2022/11/23 03:57:11;;;;;;;;;3.50;3.25;;;;;9.36;77.41;99252.44;5054766;28;45431;-81
2022/11/23 03:59:39;;;;;;;;;6.00;5.33;;;;;9.36;77.17;99258.59;5058989;28;45404;-81
2022/11/23 04:02:06;;;;;;;;;6.25;6.25;;;;;9.33;77.15;99252.41;5063108;28;45592;-81
2022/11/23 04:04:32;;;;;;;;;6.25;5.50;;;;;9.35;77.18;99256.81;5061897;28;45777;-81
2022/11/23 04:06:57;;;;;;;;;2.25;2.25;;;;;9.30;77.20;99248.00;5060535;28;45461;-81
2022/11/23 04:09:23;;;;;;;;;5.00;4.50;;;;;9.20;77.38;99232.97;5057916;28;45453;-81
2022/11/23 04:11:49;;;;;;;;;3.25;3.25;;;;;9.32;77.46;99254.16;5065985;28;45577;-82
2022/11/23 04:14:14;;;;;;;;;6.75;3.50;;;;;9.24;77.50;99225.19;5065525;28;44898;-81
2022/11/23 04:16:39;;;;;;;;;4.00;3.25;;;;;9.39;77.65;99245.50;5018501;28;1127640;-81
2022/11/23 04:19:05;;;;;;;;;5.33;4.00;;;;;9.19;77.54;99212.88;5048749;28;45489;-81
2022/11/23 04:21:30;;;;;;;;;4.00;4.00;;;;;9.28;77.66;99227.00;5043342;28;46762;-81
2022/11/23 04:23:55;;;;;;;;;6.50;4.75;;;;;9.27;77.66;99222.63;5045696;28;45233;-81
2022/11/23 04:26:21;;;;;;;;;6.00;6.00;;;;;9.39;77.57;99239.38;5047129;28;45254;-82
2022/11/23 04:28:46;;;;;;;;;7.67;6.67;;;;;9.28;77.82;99228.75;5038458;28;47468;-81
2022/11/23 04:31:11;;;;;;;;;5.00;4.33;;;;;9.30;77.71;99220.03;5039977;28;47242;-81
2022/11/23 04:33:37;;;;;;;;;6.25;6.00;;;;;9.30;77.81;99208.66;5021221;28;45430;-81
2022/11/23 04:36:02;;;;;;;;;7.00;6.33;;;;;9.29;77.78;99209.53;5039568;28;45321;-81
2022/11/23 04:38:27;;;;;;;;;6.75;5.25;;;;;9.30;77.89;99219.16;5041799;28;45606;-81
2022/11/23 04:40:53;;;;;;;;;1.00;0.67;;;;;9.10;78.46;99186.53;5038105;28;48135;-81
2022/11/23 04:43:18;;;;;;;;;8.00;6.00;;;;;9.18;78.42;99206.75;5041276;28;48921;-81
2022/11/23 04:45:43;;;;;;;;;4.75;4.00;;;;;9.00;78.74;99181.13;5037757;28;45292;-81
2022/11/23 04:48:09;;;;;;;;;6.75;3.00;;;;;9.19;79.26;99223.38;5035254;28;45368;-81
2022/11/23 04:50:36;;;;;;;;;4.00;4.00;;;;;9.13;79.22;99197.94;5036992;28;49504;-81
2022/11/23 04:53:02;;;;;;;;;5.00;3.00;;;;;8.95;79.45;99169.69;5033447;28;45387;-81
2022/11/23 04:55:27;;;;;;;;;3.00;3.00;;;;;9.09;79.55;99196.13;5044414;28;45341;-81
2022/11/23 04:57:52;;;;;;;;;4.00;4.00;;;;;9.17;79.65;99198.88;5049418;28;49116;-81
2022/11/23 05:00:18;;;;;;;;;4.00;4.00;;;;;9.05;79.97;99168.09;5048560;28;52392;-81
2022/11/23 05:02:43;;;;;;;;;5.50;4.00;;;;;9.10;83.52;99187.41;5049417;28;45335;-81
2022/11/23 05:05:08;;;;;;;;;6.33;4.00;;;;;9.17;80.90;99191.00;5051172;28;52566;-81
2022/11/23 05:07:34;;;;;;;;;3.00;2.00;;;;;9.17;80.25;99201.50;5046864;28;45049;-81
2022/11/23 05:09:59;;;;;;;;;4.00;4.00;;;;;9.02;80.64;99160.22;5048290;28;45285;-81
2022/11/23 05:12:24;;;;;;;;;6.00;6.00;;;;;9.20;80.83;99188.41;5045435;28;49337;-81
2022/11/23 05:14:49;;;;;;;;;3.00;3.00;;;;;9.05;80.90;99161.13;5048569;28;45097;-81
2022/11/23 05:17:15;;;;;;;;;3.33;3.00;;;;;9.09;80.79;99159.44;5050768;28;45025;-81
2022/11/23 05:19:40;;;;;;;;;4.00;2.00;;;;;9.12;80.83;99164.72;5070623;28;58675;-81
2022/11/23 05:22:05;;;;;;;;;3.00;3.00;;;;;9.14;80.94;99159.50;5068399;28;45224;-81
2022/11/23 05:24:31;;;;;;;;;3.50;3.25;;;;;9.23;81.19;99175.38;5073603;28;44961;-81
2022/11/23 05:26:56;;;;;;;;;2.00;1.00;;;;;9.16;81.07;99166.56;5050970;28;48736;-81
2022/11/23 05:29:21;;;;;;;;;4.00;2.00;;;;;9.21;81.20;99172.75;5074337;28;49214;-81
2022/11/23 05:31:47;;;;;;;;;4.50;3.50;;;;;9.34;80.99;99186.00;5072979;28;44959;-82
2022/11/23 05:34:12;;;;;;;;;3.00;2.75;;;;;9.38;81.10;99177.34;5067074;28;45291;-82
2022/11/23 05:36:37;;;;;;;;;6.75;3.75;;;;;9.35;81.01;99178.16;5071070;28;45145;-81
2022/11/23 05:39:03;;;;;;;;;2.67;2.67;;;;;9.47;81.12;99182.72;5066775;28;45285;-81
2022/11/23 05:41:28;;;;;;;;;4.75;3.25;;;;;9.49;81.00;99194.97;5069909;28;45646;-82
2022/11/23 05:43:53;;;;;;;;;6.33;5.67;;;;;9.50;80.99;99190.59;5068598;28;45425;-82
2022/11/23 05:46:19;;;;;;;;;4.67;4.00;;;;;9.45;81.02;99179.16;5061398;28;45525;-81
2022/11/23 05:48:44;;;;;;;;;5.50;4.00;;;;;9.38;80.96;99151.13;5059237;28;45716;-82
2022/11/23 05:51:09;;;;;;;;;4.75;3.75;;;;;9.60;80.95;99184.59;5052723;28;45364;-81
2022/11/23 05:53:35;;;;;;;;;5.75;4.00;;;;;9.59;80.85;99176.72;5074513;28;45252;-81
2022/11/23 05:56:01;;;;;;;;;6.75;5.50;;;;;9.62;80.92;99176.78;5072660;28;45370;-82
2022/11/23 05:58:27;;;;;;;;;7.25;4.50;;;;;9.48;81.08;99164.34;5068129;28;45846;-82
2022/11/23 06:00:59;;;;;;;;;6.75;6.75;;;;;9.49;80.79;99162.63;5071588;28;45012;-82
2022/11/23 06:03:25;;;;;;;;;8.25;7.50;;;;;9.46;80.95;99159.97;5052127;28;44954;-82
2022/11/23 06:05:51;;;;;;;;;4.00;4.00;;;;;9.55;81.02;99170.56;5051909;28;45210;-81
2022/11/23 06:08:16;;;;;;;;;7.00;7.00;;;;;9.60;81.02;99171.50;5050900;28;45655;-82
2022/11/23 06:10:41;;;;;;;;;7.25;4.50;;;;;9.50;80.70;99151.25;5048622;28;45288;-82
2022/11/23 06:13:07;;;;;;;;;8.75;7.00;;;;;9.63;80.87;99181.16;5052146;28;45044;-82
2022/11/23 06:15:32;;;;;;;;;3.75;3.75;;;;;9.64;80.75;99169.81;5039276;28;45183;-81
2022/11/23 06:17:59;;;;;;;;;3.00;3.00;;;;;9.66;80.85;99171.59;5046026;28;49008;-81
2022/11/23 06:20:25;;;;;;;;;4.75;4.75;;;;;9.67;80.87;99167.22;5052518;28;45072;-81
2022/11/23 06:22:52;;;;;;;;;4.00;3.00;;;;;9.70;80.86;99167.25;5053276;28;44924;-80
2022/11/23 06:25:17;;;;;;;;;4.50;3.00;;;;;9.56;80.92;99130.38;5049007;28;45111;-81
2022/11/23 06:27:56;;;;;;;;;7.25;4.00;;;;;9.54;81.07;99137.34;5044420;28;45416;-80
2022/11/23 06:30:21;;;;;;;;;3.00;3.00;;;;;9.50;80.94;99135.53;5029489;28;45199;-80
2022/11/23 06:32:47;;;;;;;;;3.75;3.50;;;;;9.60;81.22;99152.25;5047124;28;45182;-80
2022/11/23 06:35:12;;;;;;;;;5.67;4.00;;;;;9.45;81.29;99131.97;5035058;28;45014;-81
2022/11/23 06:37:37;;;;;;;;;3.00;3.00;;;;;9.56;81.21;99149.63;5030340;28;45135;-81
2022/11/23 06:40:03;;;;;;;;;7.00;4.25;;;;;9.59;81.15;99146.13;5034392;28;45156;-81
2022/11/23 06:42:28;;;;;;;;;7.75;4.00;;;;;9.58;81.17;99139.13;5049981;28;45370;-81
2022/11/23 06:44:54;;;;;;;;;4.67;4.33;;;;;9.51;81.31;99125.06;5050541;28;53307;-80
2022/11/23 06:47:19;;;;;;;;;3.33;3.33;;;;;9.48;81.39;99121.53;5045310;28;53116;-81
2022/11/23 06:49:44;;;;;;;;;5.33;5.00;;;;;9.37;81.31;99091.69;5046182;28;44977;-80
2022/11/23 06:52:09;;;;;;;;;7.00;4.00;;;;;9.38;81.03;99090.81;5049089;28;55810;-80
2022/11/23 06:54:35;;;;;;;;;5.67;5.33;;;;;9.53;81.20;99122.47;5050976;28;45176;-81
2022/11/23 06:57:00;;;;;;;;;7.00;5.00;;;;;9.59;81.02;99125.16;5049708;28;64611;-81
2022/11/23 06:59:25;;;;;;;;;9.33;8.00;;;;;9.58;80.85;99131.28;5051440;28;47374;-81
2022/11/23 07:01:51;;;;;;;;;8.33;7.33;;;;;9.42;80.69;99103.09;5049095;28;52214;-81
2022/11/23 07:04:16;;;;;;;;;4.50;4.25;;;;;9.53;80.67;99122.47;5046612;28;45256;-80
2022/11/23 07:06:41;;;;;;;;;3.25;3.00;;;;;9.54;80.75;99132.09;5041456;28;45256;-81
2022/11/23 07:09:08;;;;;;;;;5.00;4.33;;;;;9.55;80.82;99129.47;5035072;28;45343;-81
2022/11/23 07:11:33;;;;;;;;;7.25;5.25;;;;;9.36;80.82;99088.19;5034671;28;45582;-82
2022/11/23 07:13:58;;;;;;;;;3.67;3.00;;;;;9.25;80.49;99061.78;5034909;28;45459;-82
2022/11/23 07:16:23;;;;;;;;;2.00;2.00;;;;;9.54;80.46;99109.34;5033932;28;48476;-82
2022/11/23 07:18:50;;;;;;;;;3.00;3.00;;;;;9.45;80.17;99101.38;5034356;28;45351;-82
2022/11/23 07:21:15;;;;;;;;;3.50;2.75;;;;;9.45;80.25;99101.38;5035468;28;45320;-82
2022/11/23 07:23:40;;;;;;;;;7.50;3.25;;;;;9.59;80.01;99126.91;5017169;28;45411;-82
2022/11/23 07:26:07;;;;;;;;;5.33;4.67;;;;;9.41;80.09;99090.81;5016776;28;47080;-82
2022/11/23 07:28:33;;;;;;;;;3.50;2.75;;;;;9.49;80.82;99116.28;5036315;28;45443;-82
2022/11/23 07:30:58;;;;;;;;;3.00;2.00;;;;;9.60;80.22;99126.03;5033884;28;51366;-82
2022/11/23 07:33:23;;;;;;;;;3.00;2.00;;;;;9.57;81.66;99119.91;5015747;28;66305;-82
2022/11/23 07:35:49;;;;;;;;;3.00;3.00;;;;;9.63;80.62;99134.81;5034331;28;49387;-80
2022/11/23 07:38:14;;;;;;;;;4.00;4.00;;;;;9.63;80.43;99137.44;5033128;28;45202;-82
2022/11/23 07:40:39;;;;;;;;;3.00;3.00;;;;;9.60;86.35;99142.66;5034270;28;45516;-81
2022/11/23 07:43:05;;;;;;;;;4.50;3.50;;;;;9.59;81.83;99143.50;5035872;28;45618;-82
2022/11/23 07:45:32;;;;;;;;;4.75;3.25;;;;;9.58;81.36;99141.75;5032975;28;45340;-82
2022/11/23 07:48:04;;;;;;;;;2.75;1.50;;;;;9.59;81.55;99146.13;5041322;28;45626;-82
2022/11/23 07:50:30;;;;;;;;;3.50;3.00;;;;;9.42;80.93;99116.22;5021177;28;45379;-82
2022/11/23 07:52:55;;;;;;;;;2.75;2.00;;;;;9.61;80.85;99141.81;5031680;28;45391;-81
2022/11/23 07:55:22;;;;;;;;;3.00;2.50;;;;;9.62;80.77;99135.69;5015096;28;48525;-81
2022/11/23 07:57:51;;;;;;;;;2.25;2.25;;;;;9.64;80.97;99133.97;5043092;28;45893;-81
2022/11/23 08:00:16;;;;;;;;;1.00;1.00;;;;;9.48;80.88;99100.53;5046607;28;45422;-83
2022/11/23 08:02:42;;;;;;;;;3.75;2.00;;;;;8.96;81.30;99018.59;5016712;28;45582;-82
2022/11/23 08:05:07;;;;;;;;;2.00;2.00;;;;;9.55;81.28;99124.22;5033972;28;45848;-82
2022/11/23 08:07:33;;;;;;;;;3.50;2.75;;;;;9.12;81.19;99054.66;5022972;28;45584;-83
2022/11/23 08:09:58;;;;;;;;;4.75;3.50;;;;;9.62;82.24;99142.69;5040424;28;45447;-81
2022/11/23 08:12:23;;;;;;;;;2.00;2.00;;;;;9.60;81.91;99140.03;5040238;28;45864;-80
2022/11/23 08:14:48;;;;;;;;;4.00;3.00;;;;;9.57;81.42;99121.66;5032520;28;54353;-82
2022/11/23 08:17:14;;;;;;;;;1.67;1.67;;;;;9.50;81.13;99111.91;5028251;28;57721;-81
2022/11/23 08:19:39;;;;;;;;;2.00;2.00;;;;;9.59;81.21;99122.53;5030269;28;52685;-81
2022/11/23 08:22:04;;;;;;;;;2.00;1.00;;;;;9.45;81.04;99095.25;5021812;28;45565;-80
2022/11/23 08:24:30;;;;;;;;;1.33;1.00;;;;;9.70;80.98;99113.03;5040563;28;69678;-80
2022/11/23 08:26:55;;;;;;;;;2.33;2.00;;;;;9.67;81.19;99101.66;5030884;28;56276;-81
2022/11/23 08:29:20;;;;;;;;;4.25;2.25;;;;;9.62;80.80;99083.25;5033762;28;45565;-80
2022/11/23 08:31:46;;;;;;;;;2.00;2.00;;;;;9.83;80.76;99109.69;5043691;28;45088;-81
2022/11/23 08:34:12;;;;;;;;;2.00;1.25;;;;;9.87;80.51;99100.13;5042444;28;45454;-81
2022/11/23 08:36:37;;;;;;;;;2.00;2.00;;;;;9.64;80.49;99043.91;5033833;28;45495;-81
2022/11/23 08:39:03;;;;;;;;;1.50;1.50;;;;;9.95;80.20;99087.06;5035376;28;45550;-80
2022/11/23 08:41:28;;;;;;;;;4.25;3.50;;;;;9.96;80.46;99065.25;5033444;28;45485;-81
2022/11/23 08:43:53;;;;;;;;;0.00;0.00;;;;;10.14;80.79;99065.38;5036221;28;46114;-81
2022/11/23 08:46:19;;;;;;;;;3.00;3.00;;;;;10.17;80.38;99054.94;5014208;28;57200;-80
2022/11/23 08:48:44;;;;;;;;;2.50;2.50;;;;;10.04;80.15;99018.94;5021118;28;45306;-80
2022/11/23 08:51:09;;;;;;;;;2.75;2.25;;;;;10.11;80.21;99025.13;5009941;28;45549;-81
2022/11/23 08:53:36;;;;;;;;;2.25;2.25;;;;;10.22;80.15;99042.72;5014298;28;45949;-80
2022/11/23 08:56:06;;;;;;;;;6.00;2.25;;;;;10.22;80.00;99049.72;5016144;28;45607;-80
2022/11/23 08:58:31;;;;;;;;;1.00;1.00;;;;;10.22;80.06;99049.72;5019800;28;45378;-82
2022/11/23 09:00:57;;;;;;;;;3.00;3.00;;;;;10.17;80.06;99047.06;5036643;28;46053;-81
2022/11/23 09:03:22;;;;;;;;;3.00;2.00;;;;;10.21;79.92;99061.09;5029393;28;45857;-80
2022/11/23 09:05:49;;;;;;;;;3.00;3.00;;;;;10.20;80.00;99061.97;5023090;28;45074;-81
2022/11/23 09:08:15;;;;;;;;;2.50;2.00;;;;;10.20;80.35;99056.72;5018857;28;45471;-79
2022/11/23 09:10:40;;;;;;;;;2.75;2.00;;;;;10.23;80.51;99043.59;5039964;28;45687;-80
2022/11/23 09:13:06;;;;;;;;;3.00;2.00;;;;;10.13;80.24;99019.00;5035692;28;45468;-81
2022/11/23 09:15:31;;;;;;;;;2.00;2.00;;;;;10.23;80.45;99036.59;5036129;28;45399;-80
2022/11/23 09:17:57;;;;;;;;;3.50;2.00;;;;;10.25;80.55;99036.66;5041668;28;45571;-80
2022/11/23 09:20:23;;;;;;;;;2.75;2.50;;;;;10.08;80.41;98997.97;5040638;28;45336;-79
2022/11/23 09:22:53;;;;;;;;;2.75;2.75;;;;;10.23;80.83;99041.84;5033217;28;45551;-80
2022/11/23 09:25:19;;;;;;;;;2.50;2.50;;;;;10.16;80.81;99026.94;5031086;28;45464;-79
2022/11/23 09:27:45;;;;;;;;;2.00;2.00;;;;;10.16;80.96;99024.31;5039742;28;45274;-80
2022/11/23 09:30:11;;;;;;;;;3.00;2.50;;;;;10.05;80.90;98997.09;5012478;28;45348;-81
2022/11/23 09:32:36;;;;;;;;;2.50;1.75;;;;;10.30;81.26;99038.47;5034455;28;45716;-79
2022/11/23 09:35:02;;;;;;;;;3.00;3.00;;;;;10.22;81.36;99023.47;5031799;28;45435;-80
2022/11/23 09:37:27;;;;;;;;;3.50;2.00;;;;;10.09;81.61;99007.59;5030035;28;45553;-79
2022/11/23 09:39:56;;;;;;;;;3.00;3.00;;;;;10.10;81.61;98998.00;5031153;28;52744;-80
2022/11/23 09:42:39;;;;;;;;;2.75;2.00;;;;;10.14;81.48;99006.75;5036161;28;46047;-80
2022/11/23 09:45:08;;;;;;;;;2.25;2.25;;;;;10.24;81.58;99024.38;5019177;28;45298;-80
2022/11/23 09:48:34;;;;;;;;;4.00;3.00;;;;;10.24;82.06;99022.63;5020471;28;45355;-80
2022/11/23 09:51:05;;;;;;;;;3.00;2.00;;;;;10.23;82.35;99014.72;4982593;28;45321;-80
2022/11/23 09:53:44;;;;;;;;;2.00;2.00;;;;;10.00;82.40;98980.41;4969375;28;46232;-80
2022/11/23 09:56:31;;;;;;;;;1.50;1.25;;;;;10.16;82.60;99011.19;5011524;28;45998;-80
2022/11/23 09:59:24;;;;;;;;;3.00;2.75;;;;;9.97;82.71;98997.00;5046200;28;45100;-80
2022/11/23 10:01:50;;;;;;;;;4.00;2.00;;;;;10.10;82.83;99013.75;5005874;28;45442;-80
2022/11/23 10:04:19;;;;;;;;;2.00;2.00;;;;;10.14;82.96;99012.88;5027921;28;45652;-79
2022/11/23 10:06:55;;;;;;;;;3.50;2.50;;;;;9.97;83.04;98977.75;5035517;28;45980;-80
2022/11/23 10:09:28;;;;;;;;;3.00;3.00;;;;;10.14;83.50;99009.38;5033819;28;45428;-79
2022/11/23 10:12:06;;;;;;;;;2.50;2.50;;;;;10.13;83.30;99012.88;5035691;28;45574;-80
2022/11/23 10:14:50;;;;;;;;;1.00;1.00;;;;;10.05;86.01;99005.84;5031679;28;46319;-80
2022/11/23 10:17:39;;;;;;;;;1.00;1.00;;;;;9.98;86.02;99025.00;5032711;28;45858;-79
2022/11/23 10:20:34;;;;;;;;;3.00;3.00;;;;;9.92;87.50;99026.72;5013797;28;45657;-81
2022/11/23 10:23:01;;;;;;;;;3.25;3.00;;;;;9.85;86.07;99032.75;5050496;28;45397;-80
2022/11/23 10:25:36;;;;;;;;;2.00;2.00;;;;;9.82;86.31;99034.47;5023960;28;46080;-80
2022/11/23 10:28:14;;;;;;;;;3.25;3.25;;;;;9.85;86.36;99048.47;5015194;28;46013;-80
2022/11/23 10:30:39;;;;;;;;;3.00;3.00;;;;;9.69;87.23;99022.09;5016776;28;45490;-79
2022/11/23 10:33:08;;;;;;;;;3.00;3.00;;;;;9.78;89.19;99052.78;5019776;28;45748;-79
2022/11/23 10:35:34;;;;;;;;;3.00;3.00;;;;;9.75;88.45;99045.78;5027240;28;46102;-81
2022/11/23 10:38:09;;;;;;;;;4.50;3.25;;;;;9.71;88.60;99030.00;5033847;28;45446;-81
2022/11/23 10:40:39;;;;;;;;;3.00;3.00;;;;;9.80;88.46;99022.19;5038014;28;45443;-79
2022/11/23 10:43:15;;;;;;;;;9.50;8.25;;;;;9.81;87.62;99034.47;5036133;28;45495;-79
2022/11/23 10:45:41;;;;;;;;;3.75;3.75;;;;;9.92;87.27;99038.06;5034774;28;45433;-79
2022/11/23 10:48:07;;;;;;;;;5.00;4.00;;;;;10.05;87.24;99050.47;5037098;28;45485;-81
2022/11/23 10:50:44;;;;;;;;;4.75;3.00;;;;;9.95;87.14;99016.22;5017215;28;45573;-82
2022/11/23 10:53:13;;;;;;;;;4.75;4.00;;;;;10.27;87.14;99042.78;5040378;28;45614;-81
2022/11/23 10:55:54;;;;;;;;;3.75;2.75;;;;;10.27;87.70;99051.56;5016844;28;46255;-81
2022/11/23 10:58:40;;;;;;;;;0.75;0.75;;;;;10.38;87.43;99048.13;5032256;28;45376;-80
2022/11/23 11:01:13;;;;;;;;;5.00;5.00;;;;;10.47;86.26;99050.84;5031774;28;45415;-81
2022/11/23 11:03:40;;;;;;;;;2.50;2.50;;;;;10.40;85.82;99018.41;5036921;28;45706;-80
2022/11/23 11:06:06;;;;;;;;;5.75;5.75;;;;;10.63;85.94;99057.94;5038043;28;46356;-80
2022/11/23 11:08:48;;;;;;;;;3.00;3.00;;;;;10.60;85.96;99026.44;5028452;28;45713;-80
2022/11/23 11:11:32;;;;;;;;;7.75;7.00;;;;;10.78;85.22;99058.06;5015747;28;45336;-80
2022/11/23 11:14:04;;;;;;;;;10.25;9.75;;;;;10.82;85.10;99054.56;5012524;28;45747;-81
2022/11/23 11:16:31;;;;;;;;;5.75;5.75;;;;;10.88;85.21;99050.22;5032974;28;45500;-80
2022/11/23 11:18:57;;;;;;;;;8.75;5.75;;;;;10.60;85.45;99010.66;5031258;28;45788;-79
2022/11/23 11:21:31;;;;;;;;;6.00;5.00;;;;;10.93;85.34;99061.66;5010360;28;45845;-80
2022/11/23 11:24:00;;;;;;;;;7.75;7.00;;;;;10.88;85.47;99052.84;5019075;28;45490;-81
2022/11/23 11:26:29;;;;;;;;;8.00;7.75;;;;;10.62;84.91;99008.91;5009768;28;47195;-81
2022/11/23 11:29:01;;;;;;;;;7.00;6.75;;;;;10.98;84.53;99088.84;5031936;28;45845;-80
2022/11/23 11:32:04;;;;;;;;;5.00;5.00;;;;;11.01;85.06;99088.88;5032086;28;45571;-80
2022/11/23 11:35:13;;;;;;;;;12.50;11.75;;;;;11.10;85.26;99089.81;5034194;28;45577;-80
2022/11/23 11:37:44;;;;;;;;;4.00;4.00;;;;;11.17;84.71;99095.97;4949873;28;45808;-81
2022/11/23 11:40:25;;;;;;;;;7.25;5.75;;;;;11.21;84.69;99094.25;4954337;28;45760;-81
2022/11/23 11:42:58;;;;;;;;;8.25;7.25;;;;;11.32;84.94;99092.53;4985936;28;45402;-81